Terminal Aerodrome Forecast
Issued by NWS

Home | Current Version | Previous Version | Graphics & Text | Print | Product List | Glossary On
Versions: 1 2 3 4 5 6 7 8 9 10 11 12 13 14 15 16 17 18 19 20 21 22 23
000
FTUS43 KGRB 241700
TAFATW
TAF
KATW 241723Z 2418/2518 14010KT P6SM SKC
     FM250100 11009KT P6SM SCT150 BKN250
     FM250600 09009KT 4SM -SNPL SCT012 OVC025
     FM250700 07007KT 1 1/2SM -SNPL OVC005
      TEMPO 2507/2511 1/2SM SN OVC003
     FM251300 26009KT P6SM OVC008
     FM251600 26013G19KT P6SM BKN012=

USA.gov is the U.S. government's official web portal to all federal, state and local government web resources and services.